createdAt,value
2019-04-22T00:01:34.341Z,10.20
2019-04-22T00:04:12.023Z,10.10
2019-04-22T00:07:03.074Z,10.00
2019-04-22T00:09:38.819Z,9.90
2019-04-22T00:12:14.084Z,9.80
2019-04-22T00:14:43.839Z,9.70
2019-04-22T00:17:25.100Z,9.70
2019-04-22T00:19:57.606Z,9.60
2019-04-22T00:24:59.831Z,9.60
2019-04-22T00:27:35.735Z,9.70
2019-04-22T00:32:46.343Z,9.70
2019-04-22T00:35:18.197Z,9.70
2019-04-22T00:37:58.120Z,9.70
2019-04-22T00:40:30.878Z,9.70
2019-04-22T00:43:03.494Z,9.70
2019-04-22T00:45:38.547Z,9.60
2019-04-22T00:48:15.937Z,9.60
2019-04-22T00:50:49.613Z,9.60
2019-04-22T00:53:23.940Z,9.60
2019-04-22T00:56:14.337Z,9.50
2019-04-22T00:58:40.783Z,9.60
2019-04-22T01:03:57.039Z,9.70
2019-04-22T01:06:20.510Z,9.60
2019-04-22T01:09:00.212Z,9.60
2019-04-22T01:11:29.488Z,9.70
2019-04-22T01:14:03.158Z,9.60
2019-04-22T01:16:37.740Z,9.60
2019-04-22T01:19:07.075Z,9.50
2019-04-22T01:21:40.534Z,9.40
2019-04-22T01:24:17.521Z,9.30
2019-04-22T01:26:43.479Z,9.10
2019-04-22T01:29:11.013Z,8.90
2019-04-22T01:31:38.244Z,8.90
2019-04-22T01:34:23.370Z,8.90
2019-04-22T01:37:00.000Z,8.80
2019-04-22T01:39:43.927Z,8.70
2019-04-22T01:42:10.828Z,8.60
2019-04-22T01:44:49.083Z,8.60
2019-04-22T01:47:26.446Z,8.50
2019-04-22T01:49:52.737Z,8.50
2019-04-22T01:52:29.692Z,8.50
2019-04-22T01:55:04.322Z,8.50
2019-04-22T01:57:35.019Z,8.50
2019-04-22T02:00:01.051Z,8.40
2019-04-22T02:02:41.894Z,8.40
2019-04-22T02:07:51.550Z,8.40
2019-04-22T02:10:30.136Z,8.40
2019-04-22T02:12:58.831Z,8.50
2019-04-22T02:15:25.909Z,8.50
2019-04-22T02:18:03.301Z,8.40
2019-04-22T02:26:07.155Z,8.40
2019-04-22T02:36:30.422Z,8.10
2019-04-22T02:46:44.966Z,8.20
2019-04-22T02:51:32.747Z,8.10
2019-04-22T02:57:04.384Z,8.10
2019-04-22T03:01:47.431Z,8.10
2019-04-22T03:06:49.499Z,8.00
2019-04-22T03:14:45.633Z,8.00
2019-04-22T03:17:18.678Z,8.00
2019-04-22T03:25:23.604Z,7.90
2019-04-22T03:33:05.472Z,7.90
2019-04-22T03:55:43.434Z,7.90
2019-04-22T03:58:05.489Z,7.90
2019-04-22T04:01:06.780Z,7.90
2019-04-22T04:03:19.336Z,7.90
2019-04-22T04:05:59.747Z,7.80
2019-04-22T04:08:39.039Z,7.70
2019-04-22T04:10:58.115Z,7.70
2019-04-22T04:13:49.679Z,7.60
2019-04-22T04:16:16.080Z,7.60
2019-04-22T04:19:05.053Z,7.50
2019-04-22T04:21:26.837Z,7.50
2019-04-22T04:26:42.745Z,7.40
2019-04-22T04:31:35.429Z,9.80
2019-04-22T04:34:14.775Z,7.40
2019-04-22T04:36:42.437Z,7.40
2019-04-22T04:39:21.307Z,7.40
2019-04-22T04:44:23.289Z,7.50
2019-04-22T04:49:48.014Z,7.70
2019-04-22T04:52:06.427Z,7.80
2019-04-22T04:57:11.299Z,8.00
2019-04-22T05:00:11.160Z,8.10
2019-04-22T05:05:00.148Z,8.20
2019-04-22T05:09:51.707Z,8.30
2019-04-22T05:12:41.744Z,8.40
2019-04-22T05:15:00.387Z,7.50
2019-04-22T05:20:07.357Z,8.70
2019-04-22T05:22:37.740Z,8.80
2019-04-22T05:32:43.289Z,9.60
2019-04-22T05:35:20.773Z,9.70
2019-04-22T05:37:58.078Z,10.00
2019-04-22T05:40:22.960Z,10.20
2019-04-22T05:42:58.898Z,10.50
2019-04-22T05:45:32.827Z,10.80
2019-04-22T05:48:00.958Z,11.00
2019-04-22T05:50:37.322Z,11.30
2019-04-22T05:53:07.129Z,11.80
2019-04-22T05:55:47.929Z,12.20
2019-04-22T05:58:15.292Z,12.60
2019-04-22T06:01:36.727Z,12.80
2019-04-22T06:03:46.139Z,12.70
2019-04-22T06:06:15.079Z,12.90
2019-04-22T06:08:51.223Z,13.00
2019-04-22T06:11:26.756Z,13.20
2019-04-22T06:13:59.276Z,13.50
2019-04-22T06:16:43.109Z,13.60
2019-04-22T06:21:42.400Z,14.10
2019-04-22T06:24:28.001Z,14.40
2019-04-22T06:27:08.504Z,14.50
2019-04-22T06:29:22.196Z,14.70
2019-04-22T06:32:17.608Z,15.10
2019-04-22T06:34:28.701Z,15.30
2019-04-22T06:37:07.355Z,15.50
2019-04-22T06:42:09.808Z,16.10
2019-04-22T06:44:44.099Z,16.40
2019-04-22T06:47:21.088Z,16.80
2019-04-22T06:49:53.306Z,17.10
2019-04-22T06:52:22.621Z,17.30
2019-04-22T06:54:54.535Z,17.50
2019-04-22T06:57:25.450Z,17.60
2019-04-22T07:00:08.309Z,17.70
2019-04-22T07:02:45.269Z,17.90
2019-04-22T07:05:07.784Z,18.10
2019-04-22T07:07:40.006Z,18.40
2019-04-22T07:10:23.848Z,18.60
2019-04-22T07:13:06.447Z,18.70
2019-04-22T07:15:36.988Z,18.80
2019-04-22T07:17:58.428Z,18.80
2019-04-22T07:23:04.336Z,18.90
2019-04-22T07:25:34.927Z,19.10
2019-04-22T07:28:05.444Z,19.10
2019-04-22T07:30:41.164Z,19.30
2019-04-22T07:36:00.642Z,19.40
2019-04-22T07:38:23.831Z,19.40
2019-04-22T07:40:51.904Z,19.50
2019-04-22T07:45:55.021Z,19.90
2019-04-22T07:48:43.029Z,20.00
2019-04-22T07:51:10.068Z,20.00
2019-04-22T07:53:34.235Z,19.90
2019-04-22T07:56:12.227Z,20.20
2019-04-22T07:58:42.132Z,20.40
2019-04-22T08:01:24.616Z,20.60
2019-04-22T08:04:01.897Z,20.90
2019-04-22T08:06:26.406Z,21.10
2019-04-22T08:09:00.279Z,21.30
2019-04-22T08:11:47.937Z,21.40
2019-04-22T08:14:10.514Z,21.70
2019-04-22T08:16:41.960Z,21.80
2019-04-22T08:19:15.790Z,21.70
2019-04-22T08:21:46.220Z,21.90
2019-04-22T08:24:22.404Z,22.20
2019-04-22T08:26:53.184Z,22.10
2019-04-22T08:29:37.701Z,22.00
2019-04-22T08:32:01.201Z,22.30
2019-04-22T08:34:29.877Z,22.20
2019-04-22T08:37:37.418Z,22.40
2019-04-22T08:39:35.877Z,22.40
2019-04-22T08:42:17.940Z,22.40
2019-04-22T08:45:05.867Z,22.60
2019-04-22T08:47:27.735Z,22.80
2019-04-22T08:52:31.932Z,22.80
2019-04-22T08:55:07.431Z,23.00
2019-04-22T09:00:04.038Z,23.10
2019-04-22T09:02:38.623Z,23.30
2019-04-22T09:05:33.558Z,23.80
2019-04-22T09:07:48.935Z,23.90
2019-04-22T09:10:21.765Z,24.00
2019-04-22T09:15:26.424Z,23.90
2019-04-22T09:18:02.096Z,24.30
2019-04-22T09:20:32.895Z,24.50
2019-04-22T09:23:09.322Z,24.40
2019-04-22T09:28:31.133Z,24.50
2019-04-22T09:30:52.438Z,24.20
2019-04-22T09:33:20.395Z,24.10
2019-04-22T09:41:00.654Z,25.00
2019-04-22T09:43:40.754Z,25.10
2019-04-22T09:46:08.546Z,25.30
2019-04-22T09:48:43.504Z,25.40
2019-04-22T09:51:12.042Z,25.50
2019-04-22T09:53:54.862Z,25.70
2019-04-22T09:56:23.852Z,25.50
2019-04-22T10:04:02.081Z,25.30
2019-04-22T10:06:35.317Z,25.40
2019-04-22T10:09:26.973Z,25.30
2019-04-22T10:11:39.104Z,25.60
2019-04-22T10:14:13.888Z,25.90
2019-04-22T10:19:18.687Z,26.20
2019-04-22T10:24:19.094Z,26.40
2019-04-22T10:26:59.989Z,26.80
2019-04-22T10:29:36.777Z,26.70
2019-04-22T10:32:07.036Z,26.90
2019-04-22T10:34:27.013Z,27.10
2019-04-22T10:36:52.755Z,28.60
2019-04-22T10:39:33.768Z,26.80
2019-04-22T10:41:54.645Z,26.90
2019-04-22T10:44:27.059Z,27.20
2019-04-22T10:46:59.965Z,27.60
2019-04-22T10:49:31.794Z,27.80
2019-04-22T10:52:04.566Z,27.90
2019-04-22T10:54:36.145Z,27.90
2019-04-22T10:57:08.638Z,27.80
2019-04-22T10:59:40.812Z,28.20
2019-04-22T11:02:13.656Z,28.10
2019-04-22T11:04:46.040Z,28.00
2019-04-22T11:07:19.009Z,28.10
2019-04-22T11:09:59.239Z,27.80
2019-04-22T11:12:26.989Z,28.00
2019-04-22T11:14:58.089Z,28.00
2019-04-22T11:17:29.725Z,27.90
2019-04-22T11:20:01.914Z,28.10
2019-04-22T11:22:36.847Z,28.30
2019-04-22T11:25:07.626Z,28.50
2019-04-22T11:27:39.197Z,28.50
2019-04-22T11:30:11.454Z,28.60
2019-04-22T11:32:44.505Z,29.00
2019-04-22T11:35:16.399Z,29.00
2019-04-22T11:37:48.673Z,29.40
2019-04-22T11:40:30.045Z,29.40
2019-04-22T11:42:56.531Z,29.70
2019-04-22T11:45:29.177Z,29.40
2019-04-22T11:48:01.481Z,29.20
2019-04-22T11:50:33.576Z,29.00
2019-04-22T11:53:07.099Z,28.70
2019-04-22T11:55:38.656Z,28.60
2019-04-22T11:58:10.664Z,28.50
2019-04-22T12:00:43.297Z,28.20
2019-04-22T12:03:14.874Z,28.40
2019-04-22T12:05:47.923Z,28.60
2019-04-22T12:08:20.725Z,28.60
2019-04-22T12:10:56.920Z,28.80
2019-04-22T12:13:26.150Z,29.00
2019-04-22T12:15:58.846Z,29.10
2019-04-22T12:18:31.249Z,29.00
2019-04-22T12:21:03.589Z,29.10
2019-04-22T12:23:37.050Z,29.40
2019-04-22T12:26:12.794Z,28.80
2019-04-22T12:28:42.078Z,28.60
2019-04-22T12:31:13.671Z,28.60
2019-04-22T12:33:45.451Z,28.00
2019-04-22T12:36:18.285Z,27.60
2019-04-22T12:38:49.806Z,27.60
2019-04-22T12:41:21.690Z,27.50
2019-04-22T12:43:53.490Z,27.70
2019-04-22T12:46:26.319Z,27.70
2019-04-22T12:48:58.252Z,27.70
2019-04-22T12:51:31.333Z,27.60
2019-04-22T12:54:03.361Z,27.70
2019-04-22T12:56:35.473Z,28.20
2019-04-22T12:59:07.641Z,28.20
2019-04-22T13:01:39.539Z,28.30
2019-04-22T13:04:14.188Z,28.40
2019-04-22T13:06:46.065Z,28.60
2019-04-22T13:09:19.495Z,28.60
2019-04-22T13:11:51.116Z,28.60
2019-04-22T13:14:23.195Z,28.70
2019-04-22T13:16:55.170Z,28.90
2019-04-22T13:19:28.268Z,28.80
2019-04-22T13:22:00.945Z,29.10
2019-04-22T13:24:34.055Z,29.50
2019-04-22T13:27:06.681Z,28.90
2019-04-22T13:29:39.346Z,28.60
2019-04-22T13:32:10.960Z,28.30
2019-04-22T13:34:49.440Z,28.00
2019-04-22T13:37:16.989Z,27.70
2019-04-22T13:39:49.262Z,27.70
2019-04-22T13:42:23.211Z,27.90
2019-04-22T13:44:53.780Z,28.10
2019-04-22T13:47:41.524Z,28.00
2019-04-22T13:50:34.572Z,27.60
2019-04-22T13:53:18.290Z,27.70
2019-04-22T13:55:41.464Z,27.50
2019-04-22T13:57:57.245Z,27.20
2019-04-22T14:00:20.547Z,27.20
2019-04-22T14:03:00.459Z,27.40
2019-04-22T14:05:32.924Z,27.80
2019-04-22T14:08:06.008Z,27.80
2019-04-22T14:10:38.646Z,28.00
2019-04-22T14:13:11.951Z,27.90
2019-04-22T14:15:43.972Z,28.40
2019-04-22T14:18:16.915Z,29.00
2019-04-22T14:20:49.197Z,29.20
2019-04-22T14:23:22.447Z,29.20
2019-04-22T14:25:54.785Z,29.20
2019-04-22T14:28:28.877Z,28.80
2019-04-22T14:31:00.476Z,29.00
2019-04-22T14:33:32.138Z,28.70
2019-04-22T14:36:04.763Z,28.40
2019-04-22T14:38:36.787Z,28.50
2019-04-22T14:41:12.086Z,28.30
2019-04-22T14:44:49.512Z,28.60
2019-04-22T14:46:39.187Z,28.80
2019-04-22T14:49:10.410Z,28.80
2019-04-22T14:51:44.163Z,28.70
2019-04-22T14:54:12.690Z,28.20
2019-04-22T14:56:28.659Z,27.70
2019-04-22T14:59:00.803Z,27.50
2019-04-22T15:01:32.915Z,27.40
2019-04-22T15:04:05.443Z,27.30
2019-04-22T15:06:38.029Z,27.30
2019-04-22T15:09:10.368Z,27.50
2019-04-22T15:11:54.868Z,27.80
2019-04-22T15:14:17.134Z,28.00
2019-04-22T15:17:07.021Z,28.20
2019-04-22T15:19:45.920Z,28.30
2019-04-22T15:22:18.683Z,28.20
2019-04-22T15:24:50.614Z,27.90
2019-04-22T15:27:22.572Z,27.80
2019-04-22T15:29:54.147Z,27.60
2019-04-22T15:32:25.453Z,27.30
2019-04-22T15:34:57.328Z,27.00
2019-04-22T15:37:29.010Z,26.90
2019-04-22T15:40:00.612Z,26.90
2019-04-22T15:42:37.344Z,26.90
2019-04-22T15:45:08.448Z,27.10
2019-04-22T15:47:39.936Z,26.90
2019-04-22T15:50:12.225Z,27.00
2019-04-22T15:52:49.635Z,27.00
2019-04-22T15:55:18.548Z,26.90
2019-04-22T15:57:50.084Z,26.70
2019-04-22T16:00:35.557Z,26.60
2019-04-22T16:02:55.300Z,26.40
2019-04-22T16:05:28.001Z,26.40
2019-04-22T16:08:01.167Z,26.30
2019-04-22T16:10:35.349Z,26.10
2019-04-22T16:13:13.213Z,26.00
2019-04-22T16:15:40.760Z,25.80
2019-04-22T16:18:15.086Z,25.40
2019-04-22T16:20:48.088Z,25.40
2019-04-22T16:23:42.358Z,25.20
2019-04-22T16:26:18.058Z,25.00
2019-04-22T16:28:52.311Z,25.00
2019-04-22T16:31:22.895Z,24.90
2019-04-22T16:33:54.533Z,24.80
2019-04-22T16:36:26.935Z,24.70
2019-04-22T16:39:00.484Z,24.50
2019-04-22T16:41:34.807Z,24.20
2019-04-22T16:44:08.937Z,24.30
2019-04-22T16:46:41.715Z,24.20
2019-04-22T16:49:15.811Z,24.20
2019-04-22T16:51:47.828Z,24.20
2019-04-22T16:54:20.184Z,24.10
2019-04-22T16:56:52.370Z,24.10
2019-04-22T16:59:24.548Z,23.80
2019-04-22T17:02:19.028Z,23.60
2019-04-22T17:04:57.752Z,23.50
2019-04-22T17:07:29.984Z,23.40
2019-04-22T17:10:02.047Z,22.90
2019-04-22T17:12:45.746Z,22.80
2019-04-22T17:15:12.696Z,22.70
2019-04-22T17:17:45.215Z,22.60
2019-04-22T17:20:17.423Z,22.30
2019-04-22T17:22:49.439Z,22.10
2019-04-22T17:25:22.486Z,21.90
2019-04-22T17:27:55.241Z,21.90
2019-04-22T17:30:29.022Z,21.70
2019-04-22T17:33:00.947Z,21.50
2019-04-22T17:35:33.999Z,21.30
2019-04-22T17:38:16.361Z,21.10
2019-04-22T17:40:58.189Z,20.90
2019-04-22T17:43:40.549Z,20.80
2019-04-22T17:46:10.768Z,20.50
2019-04-22T17:49:04.016Z,20.30
2019-04-22T17:51:36.710Z,20.10
2019-04-22T17:54:07.333Z,19.80
2019-04-22T17:56:43.434Z,19.60
2019-04-22T17:59:15.535Z,19.50
2019-04-22T18:01:43.583Z,19.20
2019-04-22T18:04:04.708Z,19.10
2019-04-22T18:07:05.420Z,18.80
2019-04-22T18:09:53.123Z,18.70
2019-04-22T18:12:13.508Z,18.50
2019-04-22T18:14:49.750Z,18.40
2019-04-22T18:17:19.460Z,18.10
2019-04-22T18:19:46.288Z,18.00
2019-04-22T18:22:14.776Z,17.80
2019-04-22T18:24:49.375Z,17.60
2019-04-22T18:27:40.340Z,17.40
2019-04-22T18:29:57.137Z,17.20
2019-04-22T18:32:26.082Z,17.10
2019-04-22T18:35:00.852Z,16.70
2019-04-22T18:37:40.999Z,16.70
2019-04-22T18:40:15.069Z,16.60
2019-04-22T18:42:49.511Z,16.60
2019-04-22T18:45:35.558Z,16.60
2019-04-22T18:47:45.619Z,16.50
2019-04-22T18:50:33.999Z,16.50
2019-04-22T18:53:30.070Z,16.40
2019-04-22T18:56:03.775Z,16.40
2019-04-22T18:58:32.247Z,16.30
2019-04-22T19:00:51.303Z,16.10
2019-04-22T19:03:29.484Z,16.00
2019-04-22T19:06:31.875Z,15.90
2019-04-22T19:08:53.662Z,15.80
2019-04-22T19:11:22.368Z,15.80
2019-04-22T19:16:36.636Z,15.90
2019-04-22T19:19:27.518Z,16.00
2019-04-22T19:21:38.116Z,16.00
2019-04-22T19:24:09.607Z,16.00
2019-04-22T19:29:18.664Z,16.00
2019-04-22T19:31:52.662Z,16.00
2019-04-22T19:34:25.653Z,15.90
2019-04-22T19:36:59.347Z,15.80
2019-04-22T19:39:27.586Z,15.80
2019-04-22T19:42:13.676Z,15.70
2019-04-22T19:44:38.555Z,15.60
2019-04-22T19:47:25.157Z,15.60
2019-04-22T19:49:54.562Z,15.50
2019-04-22T19:52:24.110Z,15.50
2019-04-22T19:54:57.320Z,15.40
2019-04-22T19:57:22.441Z,15.40
2019-04-22T19:59:56.261Z,15.40
2019-04-22T20:02:57.555Z,15.30
2019-04-22T20:05:50.965Z,15.10
2019-04-22T20:08:21.530Z,15.10
2019-04-22T20:10:51.160Z,14.90
2019-04-22T20:13:30.894Z,14.90
2019-04-22T20:15:51.911Z,14.90
2019-04-22T20:18:44.065Z,14.80
2019-04-22T20:21:13.712Z,14.70
2019-04-22T20:23:32.926Z,14.70
2019-04-22T20:26:07.311Z,14.60
2019-04-22T20:28:51.269Z,14.60
2019-04-22T20:31:19.313Z,14.50
2019-04-22T20:33:59.740Z,14.50
2019-04-22T20:36:49.104Z,14.40
2019-04-22T20:38:53.621Z,14.40
2019-04-22T20:41:26.234Z,14.30
2019-04-22T20:44:13.367Z,14.40
2019-04-22T20:46:39.415Z,14.30
2019-04-22T20:49:11.807Z,14.30
2019-04-22T20:54:19.624Z,14.30
2019-04-22T20:56:51.949Z,14.30
2019-04-22T20:59:30.007Z,14.30
2019-04-22T21:01:57.902Z,14.30
2019-04-22T21:04:26.366Z,14.30
2019-04-22T21:07:05.132Z,14.30
2019-04-22T21:09:37.955Z,14.30
2019-04-22T21:12:09.046Z,14.30
2019-04-22T21:14:52.866Z,14.30
2019-04-22T21:17:24.897Z,14.30
2019-04-22T21:20:04.659Z,14.40
2019-04-22T21:22:28.532Z,14.40
2019-04-22T21:24:57.363Z,14.40
2019-04-22T21:27:42.452Z,14.30
2019-04-22T21:29:58.143Z,14.30
2019-04-22T21:32:38.851Z,14.30
2019-04-22T21:35:21.821Z,14.30
2019-04-22T21:37:54.829Z,14.30
2019-04-22T21:40:25.815Z,11.90
2019-04-22T21:42:59.673Z,14.10
2019-04-22T21:45:21.652Z,14.10
2019-04-22T21:48:13.783Z,14.10
2019-04-22T21:50:58.162Z,14.10
2019-04-22T21:53:20.442Z,14.10
2019-04-22T21:55:43.973Z,14.10
2019-04-22T21:58:38.142Z,14.10
2019-04-22T22:01:35.235Z,14.10
2019-04-22T22:04:03.116Z,14.10
2019-04-22T22:06:26.965Z,14.10
2019-04-22T22:09:08.959Z,14.00
2019-04-22T22:11:40.029Z,14.00
2019-04-22T22:14:11.535Z,13.90
2019-04-22T22:16:38.859Z,13.90
2019-04-22T22:19:17.824Z,13.80
2019-04-22T22:21:58.303Z,13.80
2019-04-22T22:24:32.918Z,13.80
2019-04-22T22:26:55.619Z,13.70
2019-04-22T22:29:43.377Z,13.70
2019-04-22T22:32:12.938Z,13.60
2019-04-22T22:34:43.628Z,13.60
2019-04-22T22:37:06.433Z,13.60
2019-04-22T22:39:38.117Z,13.60
2019-04-22T22:41:59.568Z,13.60
2019-04-22T22:44:36.899Z,13.60
2019-04-22T22:47:24.238Z,13.60
2019-04-22T22:49:57.633Z,13.60
2019-04-22T22:52:55.562Z,13.50
2019-04-22T22:55:06.872Z,13.50
2019-04-22T22:57:38.302Z,13.50
2019-04-22T23:00:11.528Z,13.50
2019-04-22T23:03:03.413Z,14.20
2019-04-22T23:05:19.373Z,13.50
2019-04-22T23:07:55.453Z,13.40
2019-04-22T23:10:26.667Z,13.50
2019-04-22T23:13:00.470Z,13.50
2019-04-22T23:15:31.506Z,13.50
2019-04-22T23:17:43.734Z,13.50
2019-04-22T23:20:18.464Z,13.40
2019-04-22T23:23:17.147Z,13.40
2019-04-22T23:25:53.283Z,13.40
2019-04-22T23:28:29.623Z,13.30
2019-04-22T23:31:21.061Z,13.40
2019-04-22T23:34:01.185Z,13.30
2019-04-22T23:36:54.209Z,13.30
2019-04-22T23:39:30.951Z,13.30
2019-04-22T23:42:10.948Z,13.30
2019-04-22T23:44:36.697Z,13.20
2019-04-22T23:47:04.870Z,13.20
2019-04-22T23:49:35.340Z,13.20
2019-04-22T23:52:23.836Z,13.20
2019-04-22T23:54:57.102Z,13.20
2019-04-22T23:57:36.642Z,13.20
